Airfield :
LOGIN :

Register | Disclaimer

   EN    FR    IT 

 










Legend :    VFR   Marginal VFR   IFR   Intensive IFR   Very Intensive IFR
Visi :
Ceiling :
>= 8 km
>= 3000ft
5 to 8 km
1000 to 3000 ft
1500m to 5 km
500 to 1000 ft
800 to 1500m
200 to 500 ft
< 800m
< 200 ft
Symbols :   Thunderstorms  Fog  Heavy snow  Heavy precipitations  Wind > 20 kt
SIGMETs :     Misc.  Thunderstorms  Icing  Turbulence  Mountain Waves  Volcanic Ashes







- Airport Elevation : 97 ft
- IATA code : EBJ


EKEB - Esbjerg

CURRENT METAR :
  • 272350Z AUTO 19003KT 9999NDV FEW240/// 11/09 Q1004

EXPIRED METARs :
  • 272320Z AUTO 20003KT 9999NDV FEW027/// SCT240/// 12/10 Q1004
  • 272250Z AUTO 21003KT 9999NDV FEW029/// 12/10 Q1004
  • 272220Z AUTO 22001KT 9999NDV FEW039/// SCT230/// 13/11 Q1004
  • 272150Z AUTO 25003KT 9999NDV FEW036/// 13/11 Q1004
  • 272120Z AUTO 25004KT 9999NDV FEW025/// FEW036/// 13/11 Q1004

Expired Forecast.
No reported NOTAMs for that airfield.



MET'MAP, your aeronautical weather chart ! - Copyright ORBIFLY December 2007 - Disclaimer

ORBIFLY MET'MAP TEAM :

Programming & Development : Alexandra Zaïnal
Concept & Development : Baudouin d'Aumeries
Co-Development & Prog : Marc-Olivier Méhu
Technical & hardware support : Manuel Goepfert

Contact : metmap@orbifly.com




SOURCES & CREDITS :

   NOAA